Accueil
METAR-TAF:

METAR-TAF

Aéroports :

Lucius D. Clay Kaserne

Wiesbaden, Allemagne

latitude: 50-03N, longitude: 008-20E, altitude: 140 m

Observation

Le bulletin a été fait il y a 37 minutes, à 14:56 UTC
Vent calme
Température 0°C
Humidité 55%
Pression 1021 hPa
Visibilité 10 km ou plus
Ciel clair

METAR: ETOU 211456Z AUTO 00000KT 9999 CLR 00/M08 A3014 RMK AO2 SLP218 T00031082 57016 $

Heure: 16:33 (15:33 UTC)

Prévision

Le bulletin a été fait il y a 28 heures et 19 minutes, à 11:14 UTC
Prévision valable du 20 à 09 UTC au 21 à 10 UTC
Vent 6 kt de direction variable
Visibilité 10 km ou plus
Nuages épars à une hauteur de 1500 ft
Evoluant progressivement
du 20 à 17 UTC au 20 à 18 UTC
Vent 6 kt de direction variable
Visibilité: 2204 m
Quelques nuages à une hauteur de 1500 ft

TAF: ETOU 201114Z 2009/2110 VRB06KT 9999 SCT015 QNH2992INS BECMG 2017/2018 VRB06KT 9999 FEW015 QNH3004INS TX01/2014Z TNM03/2009Z LAST NO AMDS AFT 2009 NEXT 2204

Observations et prévisions météorologiques de plus de 4000 aéroports (messages METAR et TAF).

Les stations disponibles sont représentées par des disques jaunes et rouges sur la carte.

Passer la souris dessus pour voir le nom de la station.

Cliquer dessus pour voir les observations et prévisions météorologiques.

Pour changer de carte: cliquez sur les boutons verts avec une croix noire pour zoomer, sur le bouton vert avec un tiret pour effectuer un zoom arrière, ou sur les flèches vertes pour les cartes adjacentes.


METAR-TAF: